createdAt,value
2018-06-04T00:00:15.794Z,99.90
2018-06-04T00:02:44.262Z,99.90
2018-06-04T00:05:12.697Z,99.90
2018-06-04T00:07:41.146Z,99.90
2018-06-04T00:10:09.557Z,99.90
2018-06-04T00:12:37.989Z,99.90
2018-06-04T00:15:06.693Z,99.90
2018-06-04T00:17:35.107Z,99.90
2018-06-04T00:20:03.577Z,99.90
2018-06-04T00:22:32.036Z,99.90
2018-06-04T00:25:00.462Z,99.90
2018-06-04T00:27:28.864Z,99.90
2018-06-04T00:29:57.330Z,99.90
2018-06-04T00:32:25.809Z,99.90
2018-06-04T00:34:54.247Z,99.90
2018-06-04T00:37:22.665Z,99.90
2018-06-04T00:39:51.145Z,99.90
2018-06-04T00:42:19.713Z,99.90
2018-06-04T00:44:48.177Z,99.90
2018-06-04T00:47:16.706Z,99.90
2018-06-04T00:49:45.171Z,99.90
2018-06-04T00:52:13.593Z,99.90
2018-06-04T00:54:42.072Z,99.90
2018-06-04T00:57:10.553Z,99.90
2018-06-04T00:59:39.020Z,99.90
2018-06-04T01:02:08.278Z,99.90
2018-06-04T01:04:36.720Z,99.90
2018-06-04T01:07:05.205Z,99.90
2018-06-04T01:09:33.659Z,99.90
2018-06-04T01:12:02.092Z,99.90
2018-06-04T01:14:30.614Z,99.90
2018-06-04T01:16:59.092Z,99.90
2018-06-04T01:19:27.536Z,99.90
2018-06-04T01:21:56.097Z,99.90
2018-06-04T01:24:24.538Z,99.90
2018-06-04T01:26:52.984Z,99.90
2018-06-04T01:29:21.468Z,99.90
2018-06-04T01:31:49.897Z,99.90
2018-06-04T01:34:18.317Z,99.90
2018-06-04T01:36:46.765Z,99.90
2018-06-04T01:39:15.322Z,99.90
2018-06-04T01:41:43.812Z,99.90
2018-06-04T01:44:12.284Z,99.90
2018-06-04T01:46:40.800Z,99.90
2018-06-04T01:49:09.263Z,99.90
2018-06-04T01:51:37.739Z,99.90
2018-06-04T01:54:06.245Z,99.90
2018-06-04T01:56:34.798Z,99.90
2018-06-04T01:59:03.295Z,99.90
2018-06-04T02:01:31.741Z,99.90
2018-06-04T02:04:00.228Z,99.90
2018-06-04T02:06:28.680Z,99.90
2018-06-04T02:08:57.195Z,99.90
2018-06-04T02:11:25.678Z,99.90
2018-06-04T02:13:54.110Z,99.90
2018-06-04T02:18:50.634Z,99.90
2018-06-04T02:21:19.070Z,99.90
2018-06-04T02:23:47.537Z,99.90
2018-06-04T02:26:16.112Z,99.90
2018-06-04T02:28:44.545Z,99.90
2018-06-04T02:31:13.291Z,99.90
2018-06-04T02:33:41.753Z,99.90
2018-06-04T02:36:10.266Z,99.90
2018-06-04T02:38:38.708Z,99.90
2018-06-04T02:41:07.196Z,99.90
2018-06-04T02:43:35.884Z,99.90
2018-06-04T02:46:04.440Z,99.90
2018-06-04T02:48:34.682Z,99.90
2018-06-04T02:51:03.121Z,99.90
2018-06-04T02:53:33.060Z,99.90
2018-06-04T02:56:01.511Z,99.90
2018-06-04T02:58:30.895Z,99.90
2018-06-04T03:01:00.157Z,99.90
2018-06-04T03:03:29.871Z,99.90
2018-06-04T03:05:59.188Z,99.90
2018-06-04T03:08:29.723Z,99.90
2018-06-04T03:10:58.184Z,99.90
2018-06-04T03:13:27.475Z,99.90
2018-06-04T03:15:56.485Z,99.90
2018-06-04T03:18:25.811Z,99.90
2018-06-04T03:20:54.268Z,99.90
2018-06-04T03:23:22.746Z,99.90
2018-06-04T03:25:51.218Z,99.90
2018-06-04T03:28:19.676Z,99.90
2018-06-04T03:30:48.107Z,99.90
2018-06-04T03:33:16.591Z,99.90
2018-06-04T03:35:45.009Z,99.90
2018-06-04T03:38:13.489Z,99.90
2018-06-04T03:40:41.969Z,99.90
2018-06-04T03:43:10.394Z,99.90
2018-06-04T03:45:38.833Z,99.90
2018-06-04T03:48:07.278Z,99.90
2018-06-04T03:50:35.749Z,99.90
2018-06-04T03:53:04.161Z,99.90
2018-06-04T03:55:32.650Z,99.90
2018-06-04T03:58:01.067Z,99.90
2018-06-04T04:00:29.525Z,99.90
2018-06-04T04:02:58.123Z,99.90
2018-06-04T04:05:26.709Z,99.90
2018-06-04T04:07:55.500Z,99.90
2018-06-04T04:10:23.952Z,99.90
2018-06-04T04:12:52.469Z,99.90
2018-06-04T04:15:21.071Z,99.90
2018-06-04T04:17:49.552Z,99.90
2018-06-04T04:20:18.015Z,99.90
2018-06-04T04:22:46.468Z,99.90
2018-06-04T04:25:14.897Z,99.90
2018-06-04T04:27:43.370Z,99.90
2018-06-04T04:30:11.873Z,99.90
2018-06-04T04:32:40.321Z,99.90
2018-06-04T04:35:08.796Z,99.90
2018-06-04T04:37:37.281Z,99.90
2018-06-04T04:40:05.977Z,99.90
2018-06-04T04:42:34.501Z,99.90
2018-06-04T04:45:03.016Z,99.90
2018-06-04T04:47:31.460Z,99.90
2018-06-04T04:49:59.940Z,99.90
2018-06-04T04:52:28.431Z,99.90
2018-06-04T04:54:56.958Z,99.90
2018-06-04T04:57:25.638Z,99.90
2018-06-04T04:59:54.128Z,99.90
2018-06-04T05:02:22.710Z,99.90
2018-06-04T05:04:51.375Z,99.90
2018-06-04T05:07:19.808Z,99.90
2018-06-04T05:09:48.244Z,99.90
2018-06-04T05:12:16.705Z,99.90
2018-06-04T05:14:45.279Z,99.90
2018-06-04T05:17:13.847Z,99.90
2018-06-04T05:19:42.364Z,99.90
2018-06-04T05:22:10.775Z,99.90
2018-06-04T05:24:39.408Z,99.90
2018-06-04T05:27:08.043Z,99.90
2018-06-04T05:29:36.508Z,99.90
2018-06-04T05:32:14.989Z,99.90
2018-06-04T05:34:43.645Z,99.90
2018-06-04T05:37:13.306Z,99.90
2018-06-04T05:39:41.760Z,99.90
2018-06-04T05:42:10.270Z,99.90
2018-06-04T05:44:38.744Z,99.90
2018-06-04T05:47:07.247Z,99.90
2018-06-04T05:49:35.721Z,99.90
2018-06-04T05:52:04.175Z,99.90
2018-06-04T05:54:32.635Z,99.90
2018-06-04T05:57:01.078Z,99.90
2018-06-04T05:59:29.559Z,99.80
2018-06-04T06:01:58.210Z,99.50
2018-06-04T06:04:26.762Z,96.80
2018-06-04T06:06:55.245Z,96.00
2018-06-04T06:09:23.674Z,94.90
2018-06-04T06:11:52.158Z,95.20
2018-06-04T06:14:20.692Z,94.60
2018-06-04T06:16:49.148Z,94.80
2018-06-04T06:19:17.613Z,93.70
2018-06-04T06:21:46.052Z,92.20
2018-06-04T06:24:14.489Z,91.30
2018-06-04T06:26:42.977Z,90.00
2018-06-04T06:29:11.982Z,87.80
2018-06-04T06:31:40.544Z,84.40
2018-06-04T06:34:08.964Z,81.40
2018-06-04T06:36:50.018Z,83.20
2018-06-04T06:39:18.530Z,80.50
2018-06-04T06:41:47.029Z,79.60
2018-06-04T06:44:15.763Z,78.80
2018-06-04T06:46:46.577Z,78.00
2018-06-04T06:49:15.200Z,75.10
2018-06-04T06:51:44.157Z,73.20
2018-06-04T06:54:12.826Z,73.60
2018-06-04T06:56:41.290Z,71.30
2018-06-04T06:59:09.729Z,69.00
2018-06-04T07:01:38.225Z,68.00
2018-06-04T07:04:06.814Z,69.40
2018-06-04T07:06:35.290Z,70.20
2018-06-04T07:09:04.048Z,68.30
2018-06-04T07:11:32.701Z,67.50
2018-06-04T07:14:01.185Z,65.30
2018-06-04T07:16:29.612Z,64.70
2018-06-04T07:18:58.137Z,66.00
2018-06-04T07:21:26.708Z,65.50
2018-06-04T07:23:55.406Z,65.10
2018-06-04T07:26:23.894Z,65.20
2018-06-04T07:28:52.461Z,65.00
2018-06-04T07:31:21.005Z,65.30
2018-06-04T07:33:49.744Z,65.30
2018-06-04T07:36:18.544Z,65.40
2018-06-04T07:38:47.149Z,63.10
2018-06-04T07:41:16.091Z,62.80
2018-06-04T07:43:44.537Z,61.20
2018-06-04T07:46:13.001Z,61.50
2018-06-04T07:48:41.496Z,63.70
2018-06-04T07:51:10.006Z,63.00
2018-06-04T07:53:38.510Z,61.00
2018-06-04T07:56:07.009Z,61.70
2018-06-04T07:58:35.494Z,58.70
2018-06-04T08:01:03.963Z,59.10
2018-06-04T08:03:32.401Z,60.70
2018-06-04T08:06:00.961Z,62.60
2018-06-04T08:08:33.025Z,63.90
2018-06-04T08:11:01.502Z,60.20
2018-06-04T08:13:29.983Z,58.70
2018-06-04T08:15:58.458Z,58.40
2018-06-04T08:18:26.949Z,57.90
2018-06-04T08:20:55.704Z,57.40
2018-06-04T08:23:24.341Z,56.30
2018-06-04T08:25:52.772Z,57.90
2018-06-04T08:28:21.232Z,56.40
2018-06-04T08:30:50.148Z,56.50
2018-06-04T08:33:18.613Z,57.00
2018-06-04T08:35:47.158Z,56.70
2018-06-04T08:38:15.706Z,56.50
2018-06-04T08:40:44.174Z,53.20
2018-06-04T08:43:12.605Z,53.60
2018-06-04T08:45:41.151Z,52.20
2018-06-04T08:48:09.600Z,51.00
2018-06-04T08:50:38.100Z,50.60
2018-06-04T08:53:06.559Z,54.10
2018-06-04T08:58:03.164Z,57.30
2018-06-04T09:00:31.597Z,56.10
2018-06-04T09:03:00.022Z,53.60
2018-06-04T09:05:28.541Z,55.00
2018-06-04T09:07:57.036Z,53.90
2018-06-04T09:10:25.637Z,57.50
2018-06-04T09:12:54.193Z,56.50
2018-06-04T09:15:22.720Z,53.20
2018-06-04T09:17:51.130Z,52.50
2018-06-04T09:20:19.558Z,50.50
2018-06-04T09:25:16.130Z,52.20
2018-06-04T09:27:44.560Z,51.10
2018-06-04T09:30:12.989Z,52.90
2018-06-04T09:32:41.493Z,52.30
2018-06-04T09:35:09.967Z,51.10
2018-06-04T09:37:38.425Z,48.60
2018-06-04T09:40:06.889Z,50.40
2018-06-04T09:42:35.493Z,51.30
2018-06-04T09:45:03.998Z,51.20
2018-06-04T09:47:32.581Z,51.30
2018-06-04T09:50:01.238Z,49.10
2018-06-04T09:52:29.937Z,47.80
2018-06-04T09:54:58.489Z,48.80
2018-06-04T09:57:27.257Z,50.00
2018-06-04T09:59:56.331Z,48.60
2018-06-04T10:02:25.847Z,49.90
2018-06-04T10:04:54.413Z,49.10
2018-06-04T10:07:23.550Z,48.60
2018-06-04T10:09:52.368Z,48.60
2018-06-04T10:12:21.060Z,47.90
2018-06-04T10:14:50.259Z,49.70
2018-06-04T10:17:19.739Z,50.30
2018-06-04T10:19:48.610Z,48.00
2018-06-04T10:22:17.185Z,48.80
2018-06-04T10:24:45.868Z,46.00
2018-06-04T10:27:14.524Z,46.90
2018-06-04T10:29:43.193Z,48.50
2018-06-04T10:32:11.689Z,48.60
2018-06-04T10:34:40.247Z,47.20
2018-06-04T10:37:09.500Z,45.20
2018-06-04T10:39:38.054Z,46.20
2018-06-04T10:42:06.542Z,47.30
2018-06-04T10:44:35.043Z,46.70
2018-06-04T10:47:07.081Z,47.30
2018-06-04T10:49:35.487Z,49.20
2018-06-04T10:52:03.971Z,49.30
2018-06-04T10:54:32.424Z,47.60
2018-06-04T10:57:00.958Z,47.40
2018-06-04T10:59:29.475Z,50.30
2018-06-04T11:01:58.028Z,51.50
2018-06-04T11:04:26.675Z,52.90
2018-06-04T11:06:55.321Z,55.70
2018-06-04T11:09:23.930Z,56.90
2018-06-04T11:11:52.471Z,58.20
2018-06-04T11:14:20.884Z,59.60
2018-06-04T11:16:49.341Z,57.90
2018-06-04T11:19:17.907Z,57.80
2018-06-04T11:21:46.375Z,58.00
2018-06-04T11:24:14.836Z,55.60
2018-06-04T11:26:43.373Z,54.70
2018-06-04T11:29:11.843Z,56.40
2018-06-04T11:31:40.338Z,55.10
2018-06-04T11:34:08.890Z,54.80
2018-06-04T11:36:37.432Z,55.20
2018-06-04T11:39:08.013Z,55.90
2018-06-04T11:41:36.717Z,55.80
2018-06-04T11:44:06.187Z,54.90
2018-06-04T11:46:34.609Z,56.80
2018-06-04T11:49:03.108Z,58.90
2018-06-04T11:51:31.698Z,59.40
2018-06-04T11:54:00.138Z,58.60
2018-06-04T11:56:28.738Z,58.50
2018-06-04T11:58:57.616Z,56.50
2018-06-04T12:01:26.050Z,55.70
2018-06-04T12:03:54.888Z,56.60
2018-06-04T12:06:23.388Z,56.90
2018-06-04T12:08:51.982Z,56.20
2018-06-04T12:11:20.510Z,56.80
2018-06-04T12:13:49.035Z,55.90
2018-06-04T12:16:17.869Z,56.10
2018-06-04T12:18:46.346Z,56.40
2018-06-04T12:21:14.863Z,57.90
2018-06-04T12:23:43.341Z,58.50
2018-06-04T12:26:11.945Z,57.20
2018-06-04T12:28:40.995Z,58.40
2018-06-04T12:31:09.567Z,57.40
2018-06-04T12:33:44.699Z,57.80
2018-06-04T12:36:13.325Z,57.20
2018-06-04T12:38:41.838Z,57.20
2018-06-04T12:41:10.374Z,57.00
2018-06-04T12:43:38.925Z,57.20
2018-06-04T12:46:07.576Z,56.90
2018-06-04T12:48:36.067Z,56.60
2018-06-04T12:51:04.630Z,56.90
2018-06-04T12:53:33.315Z,56.70
2018-06-04T12:56:01.860Z,56.60
2018-06-04T12:58:30.392Z,56.90
2018-06-04T13:00:59.024Z,59.00
2018-06-04T13:03:27.647Z,59.10
2018-06-04T13:05:56.128Z,57.30
2018-06-04T13:08:24.616Z,57.30
2018-06-04T13:10:53.097Z,55.50
2018-06-04T13:13:21.588Z,56.20
2018-06-04T13:15:50.069Z,53.90
2018-06-04T13:18:18.640Z,54.70
2018-06-04T13:20:47.128Z,55.10
2018-06-04T13:23:15.681Z,55.00
2018-06-04T13:25:44.087Z,54.80
2018-06-04T13:28:12.602Z,54.70
2018-06-04T13:30:41.294Z,56.50
2018-06-04T13:33:09.773Z,57.30
2018-06-04T13:35:38.219Z,57.80
2018-06-04T13:38:06.740Z,56.60
2018-06-04T13:40:35.193Z,56.80
2018-06-04T13:43:03.637Z,58.10
2018-06-04T13:45:32.287Z,58.90
2018-06-04T13:48:00.768Z,58.70
2018-06-04T13:50:29.251Z,57.10
2018-06-04T13:52:57.773Z,57.20
2018-06-04T13:55:26.224Z,57.80
2018-06-04T13:57:54.714Z,57.10
2018-06-04T14:00:23.153Z,58.00
2018-06-04T14:02:51.620Z,58.90
2018-06-04T14:05:20.212Z,62.70
2018-06-04T14:07:48.737Z,63.60
2018-06-04T14:10:17.302Z,62.40
2018-06-04T14:12:45.825Z,63.50
2018-06-04T14:15:14.289Z,62.90
2018-06-04T14:17:42.837Z,62.50
2018-06-04T14:20:11.386Z,62.50
2018-06-04T14:22:40.107Z,62.90
2018-06-04T14:25:08.589Z,61.70
2018-06-04T14:27:37.164Z,61.60
2018-06-04T14:30:05.636Z,62.40
2018-06-04T14:32:34.173Z,64.70
2018-06-04T14:35:02.624Z,66.20
2018-06-04T14:37:31.148Z,68.10
2018-06-04T14:39:59.714Z,70.00
2018-06-04T14:42:28.332Z,68.60
2018-06-04T14:44:56.820Z,67.70
2018-06-04T14:47:25.336Z,68.20
2018-06-04T14:49:53.823Z,68.40
2018-06-04T14:54:50.607Z,67.80
2018-06-04T14:57:19.324Z,67.30
2018-06-04T14:59:48.324Z,68.20
2018-06-04T15:02:16.825Z,68.80
2018-06-04T15:04:45.280Z,68.60
2018-06-04T15:07:13.761Z,71.10
2018-06-04T15:09:42.294Z,70.20
2018-06-04T15:12:10.767Z,71.30
2018-06-04T15:14:39.257Z,73.20
2018-06-04T15:17:07.758Z,72.00
2018-06-04T15:19:36.310Z,71.90
2018-06-04T15:22:04.849Z,74.00
2018-06-04T15:24:33.325Z,73.50
2018-06-04T15:27:01.784Z,74.30
2018-06-04T15:29:30.328Z,74.60
2018-06-04T15:31:58.805Z,74.30
2018-06-04T15:34:28.289Z,74.40
2018-06-04T15:36:56.920Z,73.20
2018-06-04T15:39:25.445Z,73.10
2018-06-04T15:41:53.920Z,71.90
2018-06-04T15:44:22.378Z,72.90
2018-06-04T15:46:51.120Z,74.20
2018-06-04T15:49:19.759Z,76.30
2018-06-04T15:51:48.509Z,74.80
2018-06-04T15:54:16.989Z,75.10
2018-06-04T15:56:45.408Z,75.40
2018-06-04T15:59:13.863Z,74.60
2018-06-04T16:01:42.673Z,76.40
2018-06-04T16:04:11.221Z,76.50
2018-06-04T16:06:39.811Z,76.90
2018-06-04T16:09:08.668Z,75.30
2018-06-04T16:11:37.085Z,76.20
2018-06-04T16:14:05.666Z,76.00
2018-06-04T16:16:34.157Z,76.70
2018-06-04T16:19:02.613Z,76.80
2018-06-04T16:21:31.118Z,77.00
2018-06-04T16:23:59.739Z,76.90
2018-06-04T16:26:28.191Z,77.60
2018-06-04T16:28:56.675Z,79.20
2018-06-04T16:31:25.175Z,79.00
2018-06-04T16:33:53.736Z,79.00
2018-06-04T16:36:22.288Z,79.30
2018-06-04T16:38:50.933Z,78.50
2018-06-04T16:41:19.557Z,78.10
2018-06-04T16:43:47.955Z,79.20
2018-06-04T16:46:16.471Z,78.90
2018-06-04T16:48:45.015Z,79.20
2018-06-04T16:51:13.631Z,79.70
2018-06-04T16:53:42.569Z,79.70
2018-06-04T16:56:11.038Z,80.70
2018-06-04T16:58:39.750Z,81.40
2018-06-04T17:01:08.231Z,82.50
2018-06-04T17:03:36.686Z,82.60
2018-06-04T17:06:05.184Z,82.60
2018-06-04T17:08:33.627Z,83.90
2018-06-04T17:13:30.375Z,84.00
2018-06-04T17:15:58.849Z,84.70
2018-06-04T17:18:27.264Z,85.50
2018-06-04T17:20:55.656Z,85.40
2018-06-04T17:23:24.146Z,86.00
2018-06-04T17:25:52.617Z,86.80
2018-06-04T17:28:21.275Z,86.60
2018-06-04T17:30:49.849Z,86.80
2018-06-04T17:33:18.536Z,87.50
2018-06-04T17:35:47.141Z,88.80
2018-06-04T17:38:15.692Z,89.50
2018-06-04T17:40:44.229Z,89.60
2018-06-04T17:43:12.681Z,89.50
2018-06-04T17:45:41.469Z,89.50
2018-06-04T17:48:10.168Z,89.40
2018-06-04T17:50:38.828Z,88.50
2018-06-04T17:53:08.374Z,89.00
2018-06-04T17:55:36.912Z,89.20
2018-06-04T17:58:05.593Z,88.80
2018-06-04T18:00:34.329Z,89.30
2018-06-04T18:03:03.000Z,89.30
2018-06-04T18:05:31.457Z,88.80
2018-06-04T18:08:00.196Z,89.10
2018-06-04T18:10:28.865Z,89.00
2018-06-04T18:12:58.701Z,89.00
2018-06-04T18:15:27.883Z,89.30
2018-06-04T18:17:57.094Z,89.70
2018-06-04T18:20:25.705Z,90.00
2018-06-04T18:22:54.176Z,90.00
2018-06-04T18:25:22.751Z,90.30
2018-06-04T18:27:51.155Z,90.70
2018-06-04T18:30:20.936Z,90.70
2018-06-04T18:32:49.381Z,91.10
2018-06-04T18:35:17.937Z,91.20
2018-06-04T18:37:46.701Z,91.40
2018-06-04T18:42:43.495Z,91.20
2018-06-04T18:45:12.588Z,91.60
2018-06-04T18:47:41.186Z,91.30
2018-06-04T18:50:10.276Z,91.20
2018-06-04T18:52:39.086Z,91.40
2018-06-04T18:55:10.161Z,91.90
2018-06-04T19:00:07.430Z,92.50
2018-06-04T19:05:06.456Z,92.80
2018-06-04T19:07:35.684Z,93.10
2018-06-04T19:10:05.117Z,93.50
2018-06-04T19:12:34.968Z,93.90
2018-06-04T19:15:03.860Z,94.40
2018-06-04T19:17:33.263Z,94.80
2018-06-04T19:22:31.886Z,96.00
2018-06-04T19:25:00.839Z,96.30
2018-06-04T19:27:30.421Z,96.90
2018-06-04T19:30:00.190Z,97.60
2018-06-04T19:32:29.141Z,98.10
2018-06-04T19:34:57.786Z,98.40
2018-06-04T19:37:26.361Z,99.10
2018-06-04T19:42:24.611Z,99.90
2018-06-04T19:44:53.995Z,99.90
2018-06-04T19:47:24.045Z,99.90
2018-06-04T19:49:53.430Z,99.90
2018-06-04T19:52:22.042Z,99.90
2018-06-04T19:54:51.205Z,99.90
2018-06-04T19:57:20.117Z,99.90
2018-06-04T19:59:49.417Z,99.90
2018-06-04T20:02:18.710Z,99.90
2018-06-04T20:04:47.551Z,99.90
2018-06-04T20:07:16.124Z,99.90
2018-06-04T20:09:44.882Z,99.90
2018-06-04T20:12:13.448Z,99.90
2018-06-04T20:14:42.910Z,99.90
2018-06-04T20:17:12.331Z,99.90
2018-06-04T20:19:43.421Z,99.90
2018-06-04T20:22:15.112Z,99.90
2018-06-04T20:24:44.188Z,99.90
2018-06-04T20:27:13.952Z,99.90
2018-06-04T20:29:45.224Z,99.90
2018-06-04T20:32:15.312Z,99.90
2018-06-04T20:34:46.667Z,99.90
2018-06-04T20:37:21.499Z,99.90
2018-06-04T20:39:50.451Z,99.90
2018-06-04T20:42:19.021Z,99.90
2018-06-04T20:44:47.851Z,99.90
2018-06-04T20:52:12.679Z,99.90
2018-06-04T20:54:41.648Z,99.90
2018-06-04T20:57:10.247Z,99.90
2018-06-04T20:59:39.166Z,99.90
2018-06-04T21:02:08.306Z,99.90
2018-06-04T21:04:36.818Z,99.90
2018-06-04T21:07:05.577Z,99.90
2018-06-04T21:09:34.141Z,99.90
2018-06-04T21:12:02.671Z,99.90
2018-06-04T21:14:31.247Z,99.90
2018-06-04T21:16:59.795Z,99.90
2018-06-04T21:19:28.234Z,99.90
2018-06-04T21:21:56.710Z,99.90
2018-06-04T21:24:25.167Z,99.90
2018-06-04T21:26:53.820Z,99.90
2018-06-04T21:29:22.283Z,99.90
2018-06-04T21:31:50.894Z,99.90
2018-06-04T21:34:19.340Z,99.90
2018-06-04T21:36:47.909Z,99.90
2018-06-04T21:39:16.515Z,99.90
2018-06-04T21:41:45.077Z,99.90
2018-06-04T21:44:13.584Z,99.90
2018-06-04T21:46:42.195Z,99.90
2018-06-04T21:49:14.921Z,99.90
2018-06-04T21:51:43.373Z,99.90
2018-06-04T21:54:11.841Z,99.90
2018-06-04T21:56:40.394Z,99.90
2018-06-04T21:59:08.926Z,99.90
2018-06-04T22:01:37.953Z,99.90
2018-06-04T22:04:06.481Z,99.90
2018-06-04T22:06:34.974Z,99.90
2018-06-04T22:09:04.364Z,99.90
2018-06-04T22:11:33.217Z,99.90
2018-06-04T22:14:01.857Z,99.90
2018-06-04T22:16:31.224Z,99.90
2018-06-04T22:18:59.804Z,99.90
2018-06-04T22:21:28.771Z,99.90
2018-06-04T22:23:57.322Z,99.90
2018-06-04T22:26:25.792Z,99.90
2018-06-04T22:28:54.562Z,99.90
2018-06-04T22:31:23.068Z,99.90
2018-06-04T22:33:51.528Z,99.90
2018-06-04T22:36:20.753Z,99.90
2018-06-04T22:38:49.250Z,99.90
2018-06-04T22:41:17.998Z,99.90
2018-06-04T22:43:46.884Z,99.90
2018-06-04T22:46:15.401Z,99.90
2018-06-04T22:48:45.146Z,99.90
2018-06-04T22:51:13.903Z,99.90
2018-06-04T22:53:42.684Z,99.90
2018-06-04T22:56:11.163Z,99.90
2018-06-04T22:58:40.243Z,99.90
2018-06-04T23:01:08.704Z,99.90
2018-06-04T23:03:37.359Z,99.90
2018-06-04T23:06:05.912Z,99.90
2018-06-04T23:08:34.408Z,99.90
2018-06-04T23:11:03.173Z,99.90
2018-06-04T23:13:32.401Z,99.90
2018-06-04T23:16:00.879Z,99.90
2018-06-04T23:18:29.861Z,99.90
2018-06-04T23:20:58.476Z,99.90
2018-06-04T23:23:26.888Z,99.90
2018-06-04T23:25:55.435Z,99.90
2018-06-04T23:28:23.881Z,99.90
2018-06-04T23:30:52.352Z,99.90
2018-06-04T23:33:20.855Z,99.90
2018-06-04T23:35:49.366Z,99.90
2018-06-04T23:38:17.954Z,99.90
2018-06-04T23:40:46.436Z,99.90
2018-06-04T23:43:14.849Z,99.90
2018-06-04T23:45:43.402Z,99.90
2018-06-04T23:48:11.865Z,99.90
2018-06-04T23:50:40.352Z,99.90
2018-06-04T23:53:08.791Z,99.90
2018-06-04T23:55:37.250Z,99.90
2018-06-04T23:58:05.753Z,99.90
